createdAt,value
2022-12-29T00:01:14.386Z,15.60
2022-12-29T00:03:42.861Z,15.50
2022-12-29T00:06:11.400Z,15.50
2022-12-29T00:08:42.238Z,15.50
2022-12-29T00:11:11.382Z,15.50
2022-12-29T00:13:57.468Z,15.60
2022-12-29T00:16:27.472Z,15.60
2022-12-29T00:18:55.830Z,15.50
2022-12-29T00:21:43.279Z,15.50
2022-12-29T00:24:33.587Z,15.50
2022-12-29T00:27:30.693Z,15.50
2022-12-29T00:30:16.724Z,15.50
2022-12-29T00:33:05.108Z,15.50
2022-12-29T00:35:37.653Z,15.50
2022-12-29T00:38:26.403Z,15.50
2022-12-29T00:41:12.277Z,15.50
2022-12-29T00:43:58.413Z,15.50
2022-12-29T00:46:26.746Z,15.50
2022-12-29T00:49:13.490Z,15.50
2022-12-29T00:51:42.399Z,15.50
2022-12-29T00:54:11.101Z,15.50
2022-12-29T00:56:39.353Z,15.50
2022-12-29T00:59:09.574Z,15.50
2022-12-29T01:01:39.640Z,15.50
2022-12-29T01:04:10.414Z,15.50
2022-12-29T01:06:39.862Z,15.50
2022-12-29T01:09:26.828Z,15.50
2022-12-29T01:11:55.636Z,15.50
2022-12-29T01:14:24.820Z,15.50
2022-12-29T01:16:53.800Z,15.50
2022-12-29T01:19:23.766Z,15.50
2022-12-29T01:21:52.463Z,15.50
2022-12-29T01:24:21.991Z,15.50
2022-12-29T01:26:51.021Z,15.50
2022-12-29T01:29:19.943Z,15.60
2022-12-29T01:31:48.497Z,15.50
2022-12-29T01:34:16.900Z,15.50
2022-12-29T01:36:46.882Z,15.50
2022-12-29T01:39:15.157Z,15.50
2022-12-29T01:41:44.515Z,15.50
2022-12-29T01:44:48.969Z,15.50
2022-12-29T01:47:23.033Z,15.50
2022-12-29T01:49:51.478Z,15.50
2022-12-29T01:52:21.166Z,15.50
2022-12-29T01:54:53.752Z,15.50
2022-12-29T01:57:26.079Z,15.50
2022-12-29T01:59:57.546Z,15.50
2022-12-29T02:02:28.525Z,15.50
2022-12-29T02:05:04.667Z,15.50
2022-12-29T02:07:34.752Z,15.50
2022-12-29T02:10:04.399Z,15.50
2022-12-29T02:12:32.663Z,15.50
2022-12-29T02:15:03.138Z,15.50
2022-12-29T02:17:48.774Z,15.50
2022-12-29T02:20:46.824Z,15.50
2022-12-29T02:23:43.830Z,15.50
2022-12-29T02:26:30.711Z,15.50
2022-12-29T02:29:30.394Z,15.50
2022-12-29T02:32:03.977Z,15.50
2022-12-29T02:34:44.695Z,15.50
2022-12-29T02:37:22.122Z,15.60
2022-12-29T02:39:56.764Z,15.50
2022-12-29T02:42:32.773Z,15.50
2022-12-29T02:45:07.235Z,15.50
2022-12-29T02:47:43.711Z,15.50
2022-12-29T02:50:21.388Z,15.50
2022-12-29T02:52:53.884Z,15.50
2022-12-29T02:55:21.608Z,15.50
2022-12-29T02:57:50.117Z,15.50
2022-12-29T03:00:19.635Z,15.50
2022-12-29T03:03:23.188Z,15.50
2022-12-29T03:06:08.770Z,15.50
2022-12-29T03:08:46.728Z,15.50
2022-12-29T03:11:30.405Z,15.50
2022-12-29T03:14:21.833Z,15.50
2022-12-29T03:16:53.959Z,15.50
2022-12-29T03:19:28.196Z,15.50
2022-12-29T03:22:17.316Z,15.50
2022-12-29T03:24:50.496Z,15.50
2022-12-29T03:27:23.868Z,15.50
2022-12-29T03:29:56.584Z,15.60
2022-12-29T03:32:28.140Z,15.50
2022-12-29T03:34:58.980Z,15.60
2022-12-29T03:37:32.099Z,15.60
2022-12-29T03:40:00.600Z,15.50
2022-12-29T03:42:33.068Z,15.50
2022-12-29T03:45:01.492Z,15.50
2022-12-29T03:47:29.819Z,15.50
2022-12-29T03:49:59.490Z,15.50
2022-12-29T03:52:27.784Z,15.50
2022-12-29T03:54:56.027Z,15.50
2022-12-29T03:57:24.463Z,15.50
2022-12-29T03:59:52.800Z,15.50
2022-12-29T04:02:21.303Z,15.50
2022-12-29T04:04:49.686Z,15.50
2022-12-29T04:07:19.372Z,15.50
2022-12-29T04:09:47.668Z,15.50
2022-12-29T04:12:16.217Z,15.50
2022-12-29T04:14:45.426Z,15.50
2022-12-29T04:17:13.734Z,15.50
2022-12-29T04:19:42.655Z,15.40
2022-12-29T04:22:10.943Z,15.40
2022-12-29T04:24:40.639Z,15.40
2022-12-29T04:27:08.889Z,15.40
2022-12-29T04:29:37.150Z,15.40
2022-12-29T04:32:05.540Z,15.40
2022-12-29T04:34:33.837Z,15.40
2022-12-29T04:37:02.106Z,15.40
2022-12-29T04:39:30.425Z,15.40
2022-12-29T04:42:00.129Z,15.40
2022-12-29T04:44:28.498Z,15.40
2022-12-29T04:46:56.812Z,15.40
2022-12-29T04:49:25.244Z,15.40
2022-12-29T04:51:53.553Z,15.40
2022-12-29T04:54:21.792Z,15.40
2022-12-29T04:56:50.056Z,15.40
2022-12-29T04:59:19.755Z,15.40
2022-12-29T05:01:48.185Z,15.30
2022-12-29T05:04:16.484Z,15.30
2022-12-29T05:06:44.751Z,15.30
2022-12-29T05:09:13.063Z,15.30
2022-12-29T05:11:42.223Z,15.30
2022-12-29T05:14:10.567Z,15.30
2022-12-29T05:16:40.362Z,15.30
2022-12-29T05:19:08.706Z,15.30
2022-12-29T05:21:36.995Z,15.30
2022-12-29T05:24:05.664Z,15.30
2022-12-29T05:26:34.009Z,15.30
2022-12-29T05:29:02.581Z,15.30
2022-12-29T05:31:30.987Z,15.30
2022-12-29T05:34:00.702Z,15.20
2022-12-29T05:36:34.461Z,15.30
2022-12-29T05:39:05.768Z,15.20
2022-12-29T05:41:34.073Z,15.20
2022-12-29T05:44:02.835Z,15.20
2022-12-29T05:46:31.177Z,15.30
2022-12-29T05:49:00.943Z,15.20
2022-12-29T05:51:29.235Z,15.20
2022-12-29T05:53:57.489Z,15.30
2022-12-29T05:56:25.988Z,15.30
2022-12-29T05:58:54.267Z,15.20
2022-12-29T06:01:22.736Z,15.30
2022-12-29T06:03:51.260Z,15.30
2022-12-29T06:06:21.091Z,15.20
2022-12-29T06:08:49.397Z,15.20
2022-12-29T06:11:17.789Z,15.20
2022-12-29T06:13:46.041Z,15.20
2022-12-29T06:16:14.325Z,15.20
2022-12-29T06:18:42.634Z,15.20
2022-12-29T06:21:10.968Z,15.30
2022-12-29T06:23:40.921Z,15.30
2022-12-29T06:26:09.221Z,15.30
2022-12-29T06:28:37.502Z,15.30
2022-12-29T06:31:06.230Z,15.30
2022-12-29T06:33:34.574Z,15.30
2022-12-29T06:36:02.858Z,15.30
2022-12-29T06:38:31.219Z,15.30
2022-12-29T06:41:00.905Z,15.30
2022-12-29T06:43:29.226Z,15.30
2022-12-29T06:45:57.641Z,15.30
2022-12-29T06:48:25.902Z,15.30
2022-12-29T06:50:54.291Z,15.30
2022-12-29T06:53:22.637Z,15.30
2022-12-29T06:55:51.568Z,15.30
2022-12-29T06:58:21.396Z,15.30
2022-12-29T07:00:50.202Z,15.20
2022-12-29T07:03:18.674Z,15.20
2022-12-29T07:05:46.981Z,15.30
2022-12-29T07:08:15.373Z,15.30
2022-12-29T07:10:43.715Z,15.30
2022-12-29T07:13:12.031Z,15.20
2022-12-29T07:15:41.664Z,15.20
2022-12-29T07:18:09.986Z,15.20
2022-12-29T07:20:38.272Z,15.20
2022-12-29T07:23:06.707Z,15.20
2022-12-29T07:25:36.112Z,15.20
2022-12-29T07:28:04.823Z,15.20
2022-12-29T07:30:33.168Z,15.20
2022-12-29T07:33:02.881Z,15.30
2022-12-29T07:35:31.112Z,15.20
2022-12-29T07:37:59.350Z,15.20
2022-12-29T07:40:27.874Z,15.20
2022-12-29T07:42:56.167Z,15.20
2022-12-29T07:45:24.451Z,15.20
2022-12-29T07:47:52.742Z,15.20
2022-12-29T07:50:22.505Z,15.20
2022-12-29T07:52:50.793Z,15.20
2022-12-29T07:55:19.563Z,15.20
2022-12-29T07:57:47.858Z,15.20
2022-12-29T08:00:17.305Z,15.20
2022-12-29T08:02:45.692Z,15.20
2022-12-29T08:05:14.112Z,15.20
2022-12-29T08:07:45.090Z,15.30
2022-12-29T08:10:14.265Z,15.30
2022-12-29T08:12:43.724Z,15.20
2022-12-29T08:15:13.682Z,15.20
2022-12-29T08:17:42.103Z,15.20
2022-12-29T08:20:11.751Z,15.30
2022-12-29T08:22:40.138Z,15.20
2022-12-29T08:25:10.935Z,15.20
2022-12-29T08:27:39.179Z,15.30
2022-12-29T08:30:09.200Z,15.30
2022-12-29T08:32:37.471Z,15.30
2022-12-29T08:35:07.103Z,15.30
2022-12-29T08:37:35.438Z,15.30
2022-12-29T08:40:04.954Z,15.30
2022-12-29T08:42:34.951Z,15.20
2022-12-29T08:45:03.555Z,15.30
2022-12-29T08:47:31.932Z,15.30
2022-12-29T08:50:00.299Z,15.30
2022-12-29T08:52:28.543Z,15.30
2022-12-29T08:54:56.901Z,15.30
2022-12-29T08:57:25.942Z,15.30
2022-12-29T08:59:55.571Z,15.30
2022-12-29T09:02:24.274Z,15.40
2022-12-29T09:04:53.561Z,15.30
2022-12-29T09:07:21.870Z,15.30
2022-12-29T09:09:50.143Z,15.30
2022-12-29T09:12:19.101Z,15.40
2022-12-29T09:14:48.689Z,15.30
2022-12-29T09:17:35.674Z,15.40
2022-12-29T09:20:04.139Z,15.40
2022-12-29T09:22:32.492Z,15.40
2022-12-29T09:25:01.150Z,15.40
2022-12-29T09:27:29.506Z,15.40
2022-12-29T09:29:57.976Z,15.40
2022-12-29T09:32:33.440Z,15.50
2022-12-29T09:35:02.300Z,15.50
2022-12-29T09:37:30.676Z,15.50
2022-12-29T09:39:58.895Z,15.50
2022-12-29T09:42:31.930Z,15.50
2022-12-29T09:45:12.587Z,15.60
2022-12-29T09:47:44.593Z,15.60
2022-12-29T09:50:22.190Z,15.50
2022-12-29T09:52:54.897Z,15.50
2022-12-29T09:55:28.139Z,15.50
2022-12-29T09:58:01.276Z,15.60
2022-12-29T10:00:38.369Z,15.50
2022-12-29T10:03:16.273Z,15.50
2022-12-29T10:05:50.768Z,15.60
2022-12-29T10:08:29.309Z,15.60
2022-12-29T10:10:59.605Z,15.60
2022-12-29T10:13:36.745Z,15.50
2022-12-29T10:16:11.662Z,15.50
2022-12-29T10:19:06.507Z,15.60
2022-12-29T10:21:48.231Z,15.60
2022-12-29T10:24:17.577Z,15.60
2022-12-29T10:26:48.828Z,15.60
2022-12-29T10:29:20.716Z,15.60
2022-12-29T10:31:52.975Z,15.60
2022-12-29T10:34:26.391Z,15.60
2022-12-29T10:37:01.174Z,15.70
2022-12-29T10:39:34.052Z,15.60
2022-12-29T10:42:10.069Z,15.70
2022-12-29T10:44:38.485Z,15.60
2022-12-29T10:47:09.428Z,15.70
2022-12-29T10:49:43.673Z,15.70
2022-12-29T10:52:14.174Z,15.70
2022-12-29T10:54:48.252Z,15.70
2022-12-29T10:57:25.407Z,15.70
2022-12-29T10:59:53.714Z,15.70
2022-12-29T11:02:49.885Z,15.70
2022-12-29T11:05:26.508Z,15.70
2022-12-29T11:08:01.987Z,15.70
2022-12-29T11:10:39.953Z,15.70
2022-12-29T11:13:14.794Z,15.80
2022-12-29T11:15:44.751Z,15.80
2022-12-29T11:18:23.366Z,15.80
2022-12-29T11:20:54.573Z,15.80
2022-12-29T11:23:32.231Z,15.80
2022-12-29T11:26:19.664Z,15.80
2022-12-29T11:28:49.909Z,15.90
2022-12-29T11:31:19.743Z,15.90
2022-12-29T11:33:48.222Z,16.00
2022-12-29T11:36:21.943Z,16.00
2022-12-29T11:38:53.818Z,16.10
2022-12-29T11:41:25.035Z,16.20
2022-12-29T11:43:55.160Z,16.40
2022-12-29T11:46:26.994Z,16.40
2022-12-29T11:48:59.327Z,16.50
2022-12-29T11:51:32.801Z,16.60
2022-12-29T11:54:04.405Z,16.70
2022-12-29T11:56:41.131Z,16.70
2022-12-29T11:59:45.194Z,16.70
2022-12-29T12:02:30.500Z,16.70
2022-12-29T12:05:06.437Z,16.70
2022-12-29T12:07:42.712Z,16.70
2022-12-29T12:10:23.921Z,16.70
2022-12-29T12:13:02.316Z,16.70
2022-12-29T12:15:44.970Z,16.70
2022-12-29T12:18:19.711Z,16.70
2022-12-29T12:20:52.483Z,16.70
2022-12-29T12:23:59.525Z,16.70
2022-12-29T12:26:36.607Z,16.70
2022-12-29T12:29:12.263Z,16.70
2022-12-29T12:31:48.931Z,16.70
2022-12-29T12:34:22.926Z,16.70
2022-12-29T12:37:16.466Z,16.80
2022-12-29T12:40:03.066Z,17.00
2022-12-29T12:42:46.773Z,17.00
2022-12-29T12:45:45.135Z,17.00
2022-12-29T12:48:30.789Z,17.10
2022-12-29T12:51:06.464Z,17.10
2022-12-29T12:53:50.254Z,17.10
2022-12-29T12:56:49.766Z,17.10
2022-12-29T12:59:32.364Z,17.10
2022-12-29T13:02:11.050Z,17.10
2022-12-29T13:05:22.697Z,17.10
2022-12-29T13:08:09.210Z,17.10
2022-12-29T13:10:48.448Z,17.10
2022-12-29T13:13:40.898Z,17.10
2022-12-29T13:16:15.887Z,17.10
2022-12-29T13:18:55.095Z,17.10
2022-12-29T13:21:47.602Z,17.10
2022-12-29T13:24:27.199Z,17.20
2022-12-29T13:27:02.537Z,17.20
2022-12-29T13:29:37.383Z,17.20
2022-12-29T13:32:24.266Z,17.30
2022-12-29T13:35:04.782Z,17.30
2022-12-29T13:37:36.297Z,17.30
2022-12-29T13:40:13.522Z,17.30
2022-12-29T13:42:43.951Z,17.20
2022-12-29T13:45:18.787Z,17.20
2022-12-29T13:47:51.446Z,17.20
2022-12-29T13:50:22.356Z,17.20
2022-12-29T13:53:01.476Z,17.10
2022-12-29T13:55:34.470Z,17.10
2022-12-29T13:58:07.255Z,17.10
2022-12-29T14:00:46.420Z,17.10
2022-12-29T14:03:47.436Z,17.10
2022-12-29T14:06:25.041Z,17.20
2022-12-29T14:08:56.781Z,17.20
2022-12-29T14:11:31.115Z,17.20
2022-12-29T14:13:59.912Z,17.30
2022-12-29T14:16:33.658Z,17.30
2022-12-29T14:19:15.201Z,17.30
2022-12-29T14:21:51.829Z,17.30
2022-12-29T14:24:42.166Z,17.40
2022-12-29T14:27:47.923Z,17.30
2022-12-29T14:30:51.762Z,17.30
2022-12-29T14:33:23.472Z,17.30
2022-12-29T14:35:53.561Z,17.30
2022-12-29T14:38:25.390Z,17.30
2022-12-29T14:40:54.941Z,17.30
2022-12-29T14:43:27.272Z,17.30
2022-12-29T14:45:58.998Z,17.30
2022-12-29T14:48:40.524Z,17.20
2022-12-29T14:51:28.231Z,17.20
2022-12-29T14:53:56.657Z,17.20
2022-12-29T14:56:29.815Z,17.20
2022-12-29T14:59:00.761Z,17.20
2022-12-29T15:01:40.548Z,17.20
2022-12-29T15:04:19.126Z,17.20
2022-12-29T15:06:48.335Z,17.10
2022-12-29T15:09:27.666Z,17.10
2022-12-29T15:11:58.701Z,17.10
2022-12-29T15:14:32.347Z,17.10
2022-12-29T15:17:00.788Z,17.10
2022-12-29T15:19:31.012Z,17.10
2022-12-29T15:21:59.393Z,17.10
2022-12-29T15:24:27.804Z,17.10
2022-12-29T15:26:57.173Z,17.10
2022-12-29T15:29:34.997Z,17.00
2022-12-29T15:32:20.641Z,17.00
2022-12-29T15:34:51.842Z,17.00
2022-12-29T15:37:22.158Z,17.00
2022-12-29T15:39:50.896Z,17.00
2022-12-29T15:42:38.514Z,16.90
2022-12-29T15:45:11.408Z,17.00
2022-12-29T15:47:42.002Z,16.90
2022-12-29T15:50:24.060Z,16.90
2022-12-29T15:52:53.208Z,16.90
2022-12-29T15:55:30.750Z,16.90
2022-12-29T15:58:00.223Z,16.90
2022-12-29T16:00:30.042Z,16.90
2022-12-29T16:03:01.005Z,16.90
2022-12-29T16:05:36.677Z,16.90
2022-12-29T16:08:06.563Z,16.90
2022-12-29T16:10:39.358Z,16.80
2022-12-29T16:13:21.441Z,16.80
2022-12-29T16:15:50.473Z,16.80
2022-12-29T16:18:27.459Z,16.80
2022-12-29T16:20:58.736Z,16.80
2022-12-29T16:23:29.170Z,16.80
2022-12-29T16:25:59.003Z,16.80
2022-12-29T16:28:34.182Z,16.80
2022-12-29T16:31:06.746Z,16.80
2022-12-29T16:33:47.731Z,16.80
2022-12-29T16:36:32.520Z,16.80
2022-12-29T16:39:23.186Z,16.70
2022-12-29T16:41:52.343Z,16.80
2022-12-29T16:44:22.289Z,16.70
2022-12-29T16:47:08.444Z,16.70
2022-12-29T16:49:38.595Z,16.70
2022-12-29T16:52:19.354Z,16.70
2022-12-29T16:54:53.728Z,16.70
2022-12-29T16:57:31.373Z,16.70
2022-12-29T17:00:03.628Z,16.70
2022-12-29T17:02:34.524Z,16.70
2022-12-29T17:05:03.082Z,16.70
2022-12-29T17:07:32.725Z,16.60
2022-12-29T17:10:01.140Z,16.70
2022-12-29T17:12:31.969Z,16.60
2022-12-29T17:15:02.878Z,16.60
2022-12-29T17:17:35.339Z,16.60
2022-12-29T17:20:06.483Z,16.60
2022-12-29T17:22:36.969Z,16.70
2022-12-29T17:25:05.858Z,16.60
2022-12-29T17:27:38.701Z,16.60
2022-12-29T17:30:13.244Z,16.60
2022-12-29T17:32:42.034Z,16.60
2022-12-29T17:35:16.754Z,16.60
2022-12-29T17:37:46.783Z,16.60
2022-12-29T17:40:17.998Z,16.60
2022-12-29T17:42:48.228Z,16.60
2022-12-29T17:45:19.305Z,16.60
2022-12-29T17:47:48.422Z,16.60
2022-12-29T17:50:18.846Z,16.60
2022-12-29T17:52:53.179Z,16.60
2022-12-29T17:55:23.359Z,16.60
2022-12-29T17:57:51.996Z,16.60
2022-12-29T18:00:27.829Z,16.60
2022-12-29T18:02:56.667Z,16.50
2022-12-29T18:05:27.990Z,16.60
2022-12-29T18:07:59.527Z,16.50
2022-12-29T18:10:29.830Z,16.50
2022-12-29T18:13:01.181Z,16.50
2022-12-29T18:15:31.185Z,16.50
2022-12-29T18:18:02.887Z,16.50
2022-12-29T18:20:31.617Z,16.50
2022-12-29T18:23:01.307Z,16.50
2022-12-29T18:25:43.537Z,16.50
2022-12-29T18:28:12.246Z,16.50
2022-12-29T18:30:41.526Z,16.50
2022-12-29T18:33:21.365Z,16.50
2022-12-29T18:35:54.264Z,16.50
2022-12-29T18:38:24.011Z,16.40
2022-12-29T18:40:52.931Z,16.40
2022-12-29T18:43:22.360Z,16.40
2022-12-29T18:45:51.026Z,16.40
2022-12-29T18:48:20.933Z,16.40
2022-12-29T18:50:51.983Z,16.40
2022-12-29T18:53:22.154Z,16.40
2022-12-29T18:55:52.286Z,16.40
2022-12-29T18:58:21.111Z,16.40
2022-12-29T19:00:49.598Z,16.40
2022-12-29T19:03:19.667Z,16.40
2022-12-29T19:05:49.235Z,16.40
2022-12-29T19:08:17.828Z,16.40
2022-12-29T19:10:46.506Z,16.30
2022-12-29T19:13:19.706Z,16.30
2022-12-29T19:15:48.332Z,16.30
2022-12-29T19:21:08.530Z,16.30
2022-12-29T19:23:36.859Z,16.30
2022-12-29T19:26:05.195Z,16.30
2022-12-29T19:28:34.931Z,16.30
2022-12-29T19:31:04.597Z,16.30
2022-12-29T19:33:32.924Z,16.30
2022-12-29T19:36:02.606Z,16.30
2022-12-29T19:38:31.117Z,16.30
2022-12-29T19:40:59.492Z,16.20
2022-12-29T19:43:27.785Z,16.20
2022-12-29T19:45:57.449Z,16.20
2022-12-29T19:48:25.786Z,16.20
2022-12-29T19:50:54.110Z,16.20
2022-12-29T19:53:22.360Z,16.20
2022-12-29T19:55:50.610Z,16.20
2022-12-29T19:58:19.144Z,16.20
2022-12-29T20:00:47.553Z,16.20
2022-12-29T20:03:19.079Z,16.20
2022-12-29T20:05:50.025Z,16.20
2022-12-29T20:08:18.345Z,16.20
2022-12-29T20:10:46.634Z,16.20
2022-12-29T20:13:14.950Z,16.20
2022-12-29T20:15:44.779Z,16.20
2022-12-29T20:18:14.784Z,16.20
2022-12-29T20:20:44.904Z,16.20
2022-12-29T20:23:13.203Z,16.20
2022-12-29T20:25:45.389Z,16.20
2022-12-29T20:28:22.337Z,16.20
2022-12-29T20:30:59.532Z,16.20
2022-12-29T20:33:28.454Z,16.20
2022-12-29T20:36:06.090Z,16.20
2022-12-29T20:38:34.413Z,16.20
2022-12-29T20:41:02.686Z,16.10
2022-12-29T20:43:30.954Z,16.20
2022-12-29T20:45:59.283Z,16.10
2022-12-29T20:48:27.817Z,16.20
2022-12-29T20:50:59.508Z,16.10
2022-12-29T20:53:28.422Z,16.10
2022-12-29T20:56:01.298Z,16.10
2022-12-29T20:58:29.559Z,16.20
2022-12-29T21:01:01.617Z,16.10
2022-12-29T21:03:30.368Z,16.10
2022-12-29T21:06:00.544Z,16.10
2022-12-29T21:08:30.096Z,16.10
2022-12-29T21:10:59.701Z,16.10
2022-12-29T21:13:29.053Z,16.10
2022-12-29T21:15:58.301Z,16.10
2022-12-29T21:18:26.791Z,16.10
2022-12-29T21:21:00.820Z,16.10
2022-12-29T21:23:29.803Z,16.10
2022-12-29T21:26:00.439Z,16.00
2022-12-29T21:28:28.757Z,16.00
2022-12-29T21:30:57.141Z,16.00
2022-12-29T21:33:25.418Z,16.00
2022-12-29T21:35:53.663Z,16.00
2022-12-29T21:38:23.389Z,16.00
2022-12-29T21:40:51.811Z,16.00
2022-12-29T21:43:20.098Z,16.00
2022-12-29T21:45:50.482Z,16.00
2022-12-29T21:48:28.904Z,16.00
2022-12-29T21:51:16.145Z,16.00
2022-12-29T21:53:46.992Z,16.00
2022-12-29T21:56:17.167Z,15.90
2022-12-29T21:59:04.977Z,15.90
2022-12-29T22:01:53.255Z,15.90
2022-12-29T22:04:41.728Z,16.00
2022-12-29T22:07:28.897Z,15.90
2022-12-29T22:10:16.120Z,15.90
2022-12-29T22:13:00.082Z,15.90
2022-12-29T22:15:30.601Z,15.90
2022-12-29T22:17:59.268Z,15.90
2022-12-29T22:20:30.082Z,15.90
2022-12-29T22:22:58.450Z,15.90
2022-12-29T22:25:28.367Z,15.90
2022-12-29T22:27:59.471Z,15.90
2022-12-29T22:30:29.134Z,15.90
2022-12-29T22:32:59.148Z,15.90
2022-12-29T22:35:27.429Z,15.80
2022-12-29T22:37:55.899Z,15.90
2022-12-29T22:40:24.427Z,15.80
2022-12-29T22:42:54.328Z,15.90
2022-12-29T22:45:23.153Z,15.90
2022-12-29T22:47:51.437Z,15.80
2022-12-29T22:50:20.297Z,15.90
2022-12-29T22:52:48.541Z,15.90
2022-12-29T22:55:17.168Z,15.80
2022-12-29T22:57:45.575Z,15.80
2022-12-29T23:00:16.035Z,15.80
2022-12-29T23:02:45.348Z,15.90
2022-12-29T23:05:13.986Z,15.80
2022-12-29T23:07:42.378Z,15.90
2022-12-29T23:10:11.231Z,15.80
2022-12-29T23:12:39.678Z,15.80
2022-12-29T23:15:09.034Z,15.80
2022-12-29T23:17:38.806Z,15.80
2022-12-29T23:20:08.383Z,15.80
2022-12-29T23:22:36.648Z,15.80
2022-12-29T23:25:05.502Z,15.80
2022-12-29T23:27:33.716Z,15.80
2022-12-29T23:30:01.986Z,15.80
2022-12-29T23:32:30.310Z,15.80
2022-12-29T23:34:59.988Z,15.80
2022-12-29T23:37:28.286Z,15.80
2022-12-29T23:39:56.607Z,15.80
2022-12-29T23:42:25.027Z,15.80
2022-12-29T23:44:53.304Z,15.80
2022-12-29T23:47:21.570Z,15.80
2022-12-29T23:49:49.859Z,15.80
2022-12-29T23:52:19.552Z,15.80
2022-12-29T23:54:49.439Z,15.80
2022-12-29T23:57:17.795Z,15.80
2022-12-29T23:59:46.066Z,15.80
